Time;durP1;ratioP1;P1;durP2;ratioP2;P2;SDS_P1;SDS_P2;PMS_P1;PMS_P2;Temp;Humidity;BMP_temperature;BMP_pressure;BME280_temperature;BME280_humidity;BME280_pressure;Samples;Min_cycle;Max_cycle;Signal;HPM_P1;HPM_P2
2022/08/12 00:42:52;;;;;;;4.90;3.13;;;;;;;20.66;48.22;101724.91;6217752;23;20011;-86
2022/08/12 00:45:18;;;;;;;8.88;3.10;;;;;;;20.64;49.99;101729.00;6165827;23;20319;-86
2022/08/12 00:47:44;;;;;;;11.25;3.58;;;;;;;20.60;51.10;101727.88;6217238;23;20001;-86
2022/08/12 00:50:17;;;;;;;7.60;3.13;;;;;;;20.56;49.26;101716.50;6190819;23;20314;-86
2022/08/12 00:52:48;;;;;;;6.40;3.30;;;;;;;20.53;50.22;101728.06;6166763;23;20099;-86
2022/08/12 00:55:14;;;;;;;5.60;3.33;;;;;;;20.51;48.44;101717.31;6191513;23;20000;-85
2022/08/12 00:57:46;;;;;;;5.47;3.30;;;;;;;20.49;47.27;101719.50;6190440;23;20000;-85
2022/08/12 01:00:20;;;;;;;5.65;3.22;;;;;;;20.50;46.92;101725.84;6190855;23;20473;-86
2022/08/12 01:02:50;;;;;;;5.82;3.60;;;;;;;20.46;46.91;101714.50;6217515;23;20433;-85
2022/08/12 01:13:46;;;;;;;4.35;3.10;;;;;;;20.40;46.94;101718.28;6217543;23;20075;-86
2022/08/12 01:16:15;;;;;;;4.60;3.15;;;;;;;20.38;47.48;101723.25;6189975;23;20031;-86
2022/08/12 01:18:43;;;;;;;6.83;2.70;;;;;;;20.35;47.36;101718.25;6190396;23;20091;-85
2022/08/12 01:21:50;;;;;;;6.65;3.22;;;;;;;20.35;46.98;101721.00;6189821;23;20402;-86
2022/08/12 01:24:47;;;;;;;8.63;3.50;;;;;;;20.31;47.38;101719.84;6216638;23;20000;-85
2022/08/12 01:27:14;;;;;;;11.15;3.55;;;;;;;20.26;48.78;101717.06;6190312;23;20014;-86
2022/08/12 01:29:44;;;;;;;4.63;3.05;;;;;;;20.25;48.04;101715.38;6190479;23;20087;-85
2022/08/12 01:32:16;;;;;;;5.47;3.23;;;;;;;20.22;48.69;101729.69;6190489;23;20001;-86
2022/08/12 01:35:02;;;;;;;6.97;2.97;;;;;;;20.21;48.62;101717.00;6190363;23;20011;-85
2022/08/12 01:37:29;;;;;;;4.72;3.30;;;;;;;20.18;49.26;101726.59;6216821;23;20063;-85
2022/08/12 01:39:59;;;;;;;4.40;2.78;;;;;;;20.14;48.65;101725.47;6190170;23;20062;-85
2022/08/12 01:42:30;;;;;;;4.85;3.20;;;;;;;20.09;48.64;101723.50;6216763;23;20011;-86
2022/08/12 01:44:56;;;;;;;6.73;3.20;;;;;;;20.09;49.34;101720.75;6190481;23;20343;-85
2022/08/12 01:47:32;;;;;;;5.10;3.67;;;;;;;20.06;49.05;101720.41;6189756;23;20013;-86
2022/08/12 01:50:06;;;;;;;4.50;3.30;;;;;;;20.06;50.21;101720.41;6216417;23;20039;-85
2022/08/12 01:52:53;;;;;;;7.95;3.47;;;;;;;20.05;49.50;101718.75;6190329;23;20008;-85
2022/08/12 01:55:22;;;;;;;3.80;3.10;;;;;;;20.02;49.94;101722.00;6190223;23;20004;-85
2022/08/12 01:58:04;;;;;;;5.13;3.07;;;;;;;19.96;49.39;101723.88;6190964;23;20043;-86
2022/08/12 02:00:47;;;;;;;4.55;3.10;;;;;;;19.94;50.16;101715.88;6190591;23;20012;-86
2022/08/12 02:03:18;;;;;;;6.50;3.28;;;;;;;19.91;50.46;101715.56;6189861;23;20001;-86
2022/08/12 02:12:19;;;;;;;4.37;3.50;;;;;;;19.75;50.38;101711.75;6216293;23;20063;-85
2022/08/12 02:14:50;;;;;;;8.35;3.95;;;;;;;19.67;51.62;101717.72;6190691;23;20407;-85
2022/08/12 02:17:46;;;;;;;4.13;3.55;;;;;;;19.67;51.06;101715.78;6190096;23;20007;-85
2022/08/12 02:20:30;;;;;;;9.52;3.75;;;;;;;19.62;50.90;101711.06;6189997;23;20000;-87
2022/08/12 02:22:56;;;;;;;6.93;3.88;;;;;;;19.66;52.21;101710.53;6216768;23;20009;-85
2022/08/12 02:25:25;;;;;;;4.70;3.83;;;;;;;19.61;52.44;101703.06;6165190;23;20009;-86
2022/08/12 02:27:53;;;;;;;7.82;3.63;;;;;;;19.58;52.42;101709.91;6216397;23;20434;-86
2022/08/12 02:30:23;;;;;;;7.00;3.38;;;;;;;19.53;52.07;101703.50;6189814;23;20083;-86
2022/08/12 02:32:51;;;;;;;6.53;3.55;;;;;;;19.52;51.66;101710.94;6189693;23;20356;-85
2022/08/12 02:35:19;;;;;;;9.20;3.97;;;;;;;19.45;51.95;101696.50;6189623;23;20004;-86
2022/08/12 02:37:48;;;;;;;8.23;3.60;;;;;;;19.46;53.22;101700.94;6216310;23;20437;-86
2022/08/12 02:40:18;;;;;;;11.23;4.00;;;;;;;19.40;53.10;101702.78;6165336;23;20005;-86
2022/08/12 02:43:17;;;;;;;6.70;3.72;;;;;;;19.36;52.82;101701.63;6189996;23;20135;-85
2022/08/12 02:46:12;;;;;;;5.70;3.72;;;;;;;19.31;53.22;101696.06;6161595;23;20013;-85
2022/08/12 02:48:50;;;;;;;6.35;3.80;;;;;;;19.25;52.86;101697.91;6189286;23;20004;-85
2022/08/12 02:51:28;;;;;;;6.97;4.20;;;;;;;19.20;53.22;101703.31;6215881;23;20411;-85
2022/08/12 02:53:57;;;;;;;6.80;3.72;;;;;;;19.18;54.09;101693.66;6216743;23;19996;-85
2022/08/12 02:56:31;;;;;;;6.78;4.28;;;;;;;19.16;53.50;101701.31;6189618;23;19997;-86
2022/08/12 02:59:00;;;;;;;7.07;4.15;;;;;;;19.14;54.49;101711.75;6190766;23;20096;-86
2022/08/12 03:01:33;;;;;;;8.00;4.22;;;;;;;19.13;54.85;101704.59;6191607;23;20000;-85
2022/08/12 03:04:08;;;;;;;9.27;4.20;;;;;;;19.06;54.24;101705.59;6191269;23;20008;-85
2022/08/12 03:06:39;;;;;;;7.93;4.78;;;;;;;19.01;55.22;101700.00;6217937;23;20079;-85
2022/08/12 03:09:10;;;;;;;6.63;4.40;;;;;;;18.98;54.84;101700.50;6192017;23;20027;-85
2022/08/12 03:11:47;;;;;;;9.95;4.60;;;;;;;18.96;54.82;101710.94;6218232;23;20023;-85
2022/08/12 03:14:14;;;;;;;7.20;4.07;;;;;;;18.91;55.36;101700.69;6191814;23;20008;-85
2022/08/12 03:16:40;;;;;;;6.17;4.77;;;;;;;18.90;55.03;101700.94;6191529;23;20016;-86
2022/08/12 03:19:07;;;;;;;6.53;4.70;;;;;;;18.85;55.11;101700.81;6191370;23;20008;-85
2022/08/12 03:21:38;;;;;;;9.93;5.20;;;;;;;18.83;55.75;101695.56;6161220;23;20481;-85
2022/08/12 03:24:07;;;;;;;9.38;5.43;;;;;;;18.79;55.89;101690.81;6186308;23;20001;-85
2022/08/12 03:26:35;;;;;;;8.83;5.37;;;;;;;18.81;55.88;101696.91;6161778;23;20009;-85
2022/08/12 03:29:05;;;;;;;8.25;5.30;;;;;;;18.70;55.71;101688.47;6186321;23;20016;-85
2022/08/12 03:31:33;;;;;;;9.30;6.00;;;;;;;18.72;57.11;101693.72;6186668;23;20087;-85
2022/08/12 03:34:12;;;;;;;9.88;5.53;;;;;;;18.70;57.29;101690.41;6186427;23;20423;-86
2022/08/12 03:36:42;;;;;;;6.85;5.43;;;;;;;18.65;56.99;101685.66;6186516;23;20004;-85
2022/08/12 03:42:04;;;;;;;11.15;5.93;;;;;;;18.59;56.27;101686.66;6198857;23;20016;-85
2022/08/12 04:01:56;;;;;;;7.28;6.25;;;;;;;18.30;58.11;101689.44;6187343;23;20016;-86
2022/08/12 04:04:32;;;;;;;11.88;6.55;;;;;;;18.26;58.48;101703.94;6186334;23;20005;-86
2022/08/12 04:06:59;;;;;;;9.67;5.93;;;;;;;18.21;59.38;101700.00;6185970;23;20017;-86
2022/08/12 04:09:27;;;;;;;11.65;6.18;;;;;;;18.20;60.06;101700.25;6186377;23;20079;-85
2022/08/12 04:14:37;;;;;;;11.55;6.20;;;;;;;18.19;59.91;101701.34;6187396;23;20076;-86
2022/08/12 04:17:07;;;;;;;9.63;5.80;;;;;;;18.19;59.41;101702.16;6185579;23;20009;-85
2022/08/12 04:19:33;;;;;;;9.93;5.82;;;;;;;18.17;59.80;101701.59;6185587;23;20009;-86
2022/08/12 04:22:01;;;;;;;8.80;6.18;;;;;;;18.17;59.62;101707.09;6185291;23;20334;-86
2022/08/12 04:24:27;;;;;;;7.60;6.22;;;;;;;18.14;59.75;101707.53;6161640;23;20085;-86
2022/08/12 04:26:53;;;;;;;9.77;6.37;;;;;;;18.12;60.05;101697.91;6187358;23;20059;-85
2022/08/12 04:29:20;;;;;;;13.00;6.65;;;;;;;18.09;60.56;101704.72;6186064;23;20316;-85
2022/08/12 04:31:46;;;;;;;14.35;6.30;;;;;;;18.12;60.16;101700.66;6185694;23;20075;-85
2022/08/12 04:34:12;;;;;;;9.50;5.93;;;;;;;18.06;60.41;101700.53;6184628;23;20016;-85
2022/08/12 04:36:40;;;;;;;10.87;6.60;;;;;;;18.04;60.05;101699.09;6186163;23;20264;-85
2022/08/12 04:39:09;;;;;;;13.43;6.65;;;;;;;18.02;60.36;101699.34;6185972;23;20031;-86
2022/08/12 04:41:39;;;;;;;16.90;6.83;;;;;;;18.04;60.21;101713.69;6185987;23;20028;-86
2022/08/12 04:44:12;;;;;;;13.73;6.22;;;;;;;18.06;60.56;101705.22;6187295;23;20507;-85
2022/08/12 04:46:38;;;;;;;10.20;6.72;;;;;;;18.04;61.40;101701.84;6186703;23;20063;-86
2022/08/12 04:49:04;;;;;;;10.63;6.27;;;;;;;18.06;60.99;101708.78;6185487;23;20009;-85
2022/08/12 04:51:33;;;;;;;13.00;6.78;;;;;;;18.07;61.30;101706.88;6185362;23;20009;-86
2022/08/12 04:54:00;;;;;;;13.20;6.40;;;;;;;18.10;60.39;101709.13;6185117;23;20012;-86
2022/08/12 04:56:28;;;;;;;10.82;6.40;;;;;;;18.13;60.80;101708.66;6160547;23;20379;-85
2022/08/12 04:58:59;;;;;;;8.80;6.27;;;;;;;18.17;60.84;101698.00;6186264;23;20013;-85
2022/08/12 05:01:31;;;;;;;9.98;6.28;;;;;;;18.22;60.74;101706.34;6186411;23;20466;-85
2022/08/12 05:03:58;;;;;;;8.45;6.10;;;;;;;18.26;61.44;101701.19;6187373;23;20009;-85
2022/08/12 05:06:24;;;;;;;9.63;6.10;;;;;;;18.26;61.03;101695.69;6185438;23;20044;-86
2022/08/12 05:08:55;;;;;;;11.32;6.47;;;;;;;18.27;60.49;101700.09;6184117;23;20088;-86
2022/08/12 05:11:24;;;;;;;9.57;6.10;;;;;;;18.30;60.90;101699.59;6185697;23;20015;-85
2022/08/12 05:13:55;;;;;;;10.57;6.55;;;;;;;18.35;60.67;101697.78;6185204;23;20400;-85
2022/08/12 05:16:20;;;;;;;8.15;6.18;;;;;;;18.37;61.06;101689.31;6185418;23;20008;-85
2022/08/12 05:18:46;;;;;;;14.87;6.60;;;;;;;18.43;61.05;101696.56;6185250;23;20017;-85
2022/08/12 05:21:11;;;;;;;11.90;6.05;;;;;;;18.46;60.33;101696.06;6187190;23;20008;-86
2022/08/12 05:23:40;;;;;;;10.20;5.90;;;;;;;18.52;59.87;101700.56;6191046;23;20036;-85
2022/08/12 05:26:09;;;;;;;14.18;6.40;;;;;;;18.54;59.79;101697.56;6190032;23;20425;-85
2022/08/12 05:28:37;;;;;;;7.65;6.13;;;;;;;18.54;59.69;101703.06;6189551;23;20047;-85
2022/08/12 05:31:03;;;;;;;8.73;6.27;;;;;;;18.56;60.17;101712.72;6189972;23;20009;-89
2022/08/12 05:33:37;;;;;;;8.32;6.05;;;;;;;18.59;60.16;101705.91;6190846;23;20004;-93
2022/08/12 05:36:07;;;;;;;7.68;5.85;;;;;;;18.63;60.13;101707.09;6191502;23;20322;-94
2022/08/12 05:41:19;;;;;;;11.93;6.05;;;;;;;18.78;60.12;101709.25;6195592;23;20028;-93
2022/08/12 05:43:59;;;;;;;8.73;6.25;;;;;;;18.80;59.35;101718.06;6191042;23;20004;-93
2022/08/12 05:46:26;;;;;;;14.98;6.43;;;;;;;18.89;59.84;101718.53;6191434;23;20008;-94
2022/08/12 05:48:55;;;;;;;8.23;6.00;;;;;;;18.91;59.80;101721.84;6217808;23;20016;-90
2022/08/12 05:51:23;;;;;;;9.03;5.83;;;;;;;18.96;59.63;101721.94;6190977;23;20004;-94
2022/08/12 05:53:51;;;;;;;12.93;6.13;;;;;;;19.04;59.64;101721.50;6191296;23;20008;-94
2022/08/12 05:56:28;;;;;;;10.80;6.20;;;;;;;19.08;58.59;101721.84;6217088;23;20078;-91
2022/08/12 05:58:55;;;;;;;9.18;6.40;;;;;;;19.13;59.15;101727.41;6190860;23;20012;-93
2022/08/12 06:01:22;;;;;;;10.05;6.68;;;;;;;19.18;59.14;101733.00;6190747;23;20005;-93
2022/08/12 06:03:49;;;;;;;10.87;6.20;;;;;;;19.25;58.95;101722.66;6191626;23;20012;-89
2022/08/12 06:06:16;;;;;;;9.77;6.03;;;;;;;19.31;58.80;101730.97;6190903;23;20000;-91
2022/08/12 06:08:47;;;;;;;12.57;6.60;;;;;;;19.37;58.30;101733.56;6190391;23;20004;-92
2022/08/12 06:11:15;;;;;;;11.23;6.72;;;;;;;19.45;58.52;101729.53;6216944;23;20005;-91
2022/08/12 06:13:42;;;;;;;7.43;6.43;;;;;;;19.51;59.01;101730.44;6189610;23;20011;-85
2022/08/12 06:16:10;;;;;;;9.43;6.20;;;;;;;19.61;57.92;101731.41;6189653;23;20000;-88
2022/08/12 06:18:39;;;;;;;13.32;6.40;;;;;;;19.68;57.64;101739.50;6189749;23;20039;-84
2022/08/12 06:21:12;;;;;;;11.25;6.03;;;;;;;19.74;57.28;101738.47;6165538;23;20012;-83
2022/08/12 06:23:37;;;;;;;10.10;6.15;;;;;;;19.81;57.51;101730.03;6189536;23;20012;-84
2022/08/12 06:26:06;;;;;;;13.80;6.23;;;;;;;19.87;57.38;101733.69;6189636;23;20012;-83
2022/08/12 06:28:32;;;;;;;9.88;6.05;;;;;;;19.90;57.02;101719.41;6189648;23;20012;-84
2022/08/12 06:31:02;;;;;;;11.80;5.60;;;;;;;20.04;56.70;101714.34;6189622;23;20509;-83
2022/08/12 06:33:27;;;;;;;13.60;6.03;;;;;;;20.11;56.88;101721.31;6216662;23;20063;-83
2022/08/12 06:35:56;;;;;;;11.37;6.70;;;;;;;20.15;56.58;101713.34;6189447;23;20354;-84
2022/08/12 06:38:26;;;;;;;11.85;6.38;;;;;;;20.28;56.17;101717.63;6189766;23;20080;-83
2022/08/12 06:43:43;;;;;;;8.50;5.80;;;;;;;20.39;55.83;101713.03;6216637;23;20329;-84
2022/08/12 06:46:18;;;;;;;9.15;5.95;;;;;;;20.51;55.67;101719.25;6189936;23;20001;-84
2022/08/12 06:48:43;;;;;;;9.85;5.72;;;;;;;20.58;55.28;101714.34;6216192;23;20008;-83
2022/08/12 06:51:10;;;;;;;10.87;5.80;;;;;;;20.69;55.07;101723.56;6189228;23;20182;-83
2022/08/12 06:53:39;;;;;;;11.77;5.88;;;;;;;20.74;55.03;101715.31;6189029;23;20009;-82
2022/08/12 06:56:05;;;;;;;9.20;5.63;;;;;;;20.74;54.63;101706.22;6190267;23;20009;-84
2022/08/12 06:58:31;;;;;;;10.37;5.67;;;;;;;20.84;54.29;101711.81;6215885;23;20028;-82
2022/08/12 07:00:58;;;;;;;14.10;5.50;;;;;;;20.93;53.92;101717.69;6164685;23;20247;-82
2022/08/12 07:03:27;;;;;;;9.02;5.90;;;;;;;21.00;53.88;101710.84;6165797;23;20017;-82
2022/08/12 07:05:59;;;;;;;11.35;5.43;;;;;;;21.05;53.19;101706.47;6190278;23;20012;-83
2022/08/12 07:08:27;;;;;;;10.52;5.40;;;;;;;21.13;53.25;101711.50;6190320;23;20099;-83
2022/08/12 07:10:58;;;;;;;9.10;5.20;;;;;;;21.20;52.69;101709.34;6189672;23;20004;-83
2022/08/12 07:13:42;;;;;;;16.47;5.50;;;;;;;21.30;52.43;101703.84;6189695;23;20078;-83
2022/08/12 07:16:16;;;;;;;12.82;5.32;;;;;;;21.38;52.46;101714.41;6189171;23;20011;-83
2022/08/12 07:18:43;;;;;;;10.80;5.45;;;;;;;21.46;52.30;101715.00;6216662;23;20016;-83
2022/08/12 07:21:09;;;;;;;11.43;5.40;;;;;;;21.52;51.99;101714.78;6164515;23;20036;-84
2022/08/12 07:23:37;;;;;;;10.00;4.78;;;;;;;21.63;51.33;101718.44;6189758;23;20078;-83
2022/08/12 07:26:05;;;;;;;11.23;5.13;;;;;;;21.72;51.43;101722.34;6189152;23;20055;-82
2022/08/12 07:28:34;;;;;;;8.82;4.78;;;;;;;21.84;51.04;101729.56;6215933;23;20079;-82
2022/08/12 07:31:03;;;;;;;12.73;4.93;;;;;;;21.93;50.08;101729.88;6189129;23;20009;-83
2022/08/12 07:33:30;;;;;;;7.68;4.65;;;;;;;22.00;48.85;101728.53;6165198;23;20012;-83
2022/08/12 07:35:57;;;;;;;9.18;4.88;;;;;;;22.08;49.14;101725.22;6189016;23;20008;-83
2022/08/12 07:38:29;;;;;;;14.10;5.00;;;;;;;22.16;48.79;101726.63;6188958;23;20011;-82
2022/08/12 07:41:11;;;;;;;8.75;4.70;;;;;;;22.21;49.18;101734.09;6216199;23;20036;-82
2022/08/12 07:43:42;;;;;;;10.07;4.65;;;;;;;22.35;47.28;101732.53;6216174;23;20377;-82
2022/08/12 07:46:11;;;;;;;10.68;4.70;;;;;;;22.38;47.28;101731.97;6217733;23;20008;-83
2022/08/12 07:48:40;;;;;;;12.65;4.63;;;;;;;22.52;47.47;101739.72;6190455;23;20015;-82
2022/08/12 07:51:07;;;;;;;9.57;4.47;;;;;;;22.56;46.68;101729.78;6190710;23;20414;-82
2022/08/12 07:53:34;;;;;;;14.00;4.70;;;;;;;22.65;46.54;101733.66;6190392;23;20098;-81
2022/08/12 07:56:00;;;;;;;9.25;4.75;;;;;;;22.74;46.24;101733.94;6217474;23;20082;-81
2022/08/12 07:58:27;;;;;;;11.93;4.43;;;;;;;22.81;46.33;101733.66;6191118;23;20012;-83
2022/08/12 08:00:56;;;;;;;12.13;4.50;;;;;;;22.85;46.02;101720.94;6190734;23;20015;-83
2022/08/12 08:03:30;;;;;;;6.60;4.20;;;;;;;22.97;45.68;101735.28;6190723;23;20008;-83
2022/08/12 08:05:57;;;;;;;11.82;4.60;;;;;;;23.07;45.33;101738.06;6167100;23;20429;-82
2022/08/12 08:08:27;;;;;;;13.10;4.45;;;;;;;23.14;45.24;101739.75;6191217;23;20008;-82
2022/08/12 08:13:45;;;;;;;10.18;4.28;;;;;;;23.29;44.71;101736.94;6170675;23;20016;-81
2022/08/12 08:16:14;;;;;;;10.70;4.63;;;;;;;23.42;44.49;101744.69;6190846;23;20414;-82
2022/08/12 08:18:41;;;;;;;7.45;4.30;;;;;;;23.46;44.60;101739.44;6190659;23;20036;-81
2022/08/12 08:21:07;;;;;;;9.40;4.57;;;;;;;23.59;44.00;101738.81;6190221;23;20004;-82
2022/08/12 08:26:20;;;;;;;10.23;4.18;;;;;;;23.71;44.86;101735.75;6217803;23;20070;-82
2022/08/12 08:28:45;;;;;;;7.90;4.47;;;;;;;23.81;44.57;101735.69;6190839;23;20000;-81
2022/08/12 08:31:14;;;;;;;11.43;4.75;;;;;;;23.91;43.22;101734.00;6166066;23;20299;-82
2022/08/12 08:33:40;;;;;;;10.67;4.20;;;;;;;24.00;43.50;101737.84;6166178;23;20453;-82
2022/08/12 08:36:06;;;;;;;13.95;4.20;;;;;;;24.08;43.17;101731.72;6190437;23;20253;-82
2022/08/12 08:38:32;;;;;;;9.52;4.60;;;;;;;24.13;42.31;101736.41;6190297;23;20005;-82
2022/08/12 08:43:41;;;;;;;8.25;4.60;;;;;;;24.32;42.34;101739.34;6217380;23;20063;-82
2022/08/12 08:46:06;;;;;;;8.67;4.83;;;;;;;24.47;41.33;101746.72;6190797;23;20008;-82
2022/08/12 08:48:44;;;;;;;6.73;4.60;;;;;;;24.50;41.82;101729.50;6190258;23;20008;-82
2022/08/12 08:51:09;;;;;;;9.63;3.95;;;;;;;24.63;41.19;101737.19;6190965;23;20031;-83
2022/08/12 08:53:37;;;;;;;14.83;4.40;;;;;;;24.69;40.48;101736.03;6217027;23;20008;-82
2022/08/12 08:56:02;;;;;;;7.57;4.13;;;;;;;24.82;40.92;101745.66;6189833;23;20252;-83
2022/08/12 08:58:28;;;;;;;9.73;4.13;;;;;;;24.94;38.99;101747.22;6190517;23;20011;-82
2022/08/12 09:00:55;;;;;;;10.03;4.20;;;;;;;25.04;39.06;101736.84;6216638;23;20012;-82
2022/08/12 09:03:20;;;;;;;7.65;4.20;;;;;;;25.18;38.67;101745.31;6190361;23;20009;-82
2022/08/12 09:05:46;;;;;;;10.90;3.73;;;;;;;25.23;38.59;101733.31;6164973;23;20020;-82
2022/08/12 09:08:11;;;;;;;11.63;4.30;;;;;;;25.39;37.78;101737.66;6190318;23;20382;-82
2022/08/12 09:10:37;;;;;;;6.17;4.00;;;;;;;25.44;38.43;101719.25;6190245;23;20439;-82
2022/08/12 09:15:47;;;;;;;7.82;3.60;;;;;;;25.78;36.70;101734.97;6194646;23;20063;-82
2022/08/12 09:18:14;;;;;;;9.00;3.57;;;;;;;25.86;36.59;101729.56;6190287;23;20008;-82
2022/08/12 09:20:43;;;;;;;9.10;3.78;;;;;;;26.00;36.36;101734.41;6189867;23;20011;-82
2022/08/12 09:23:10;;;;;;;8.07;3.72;;;;;;;26.15;36.68;101730.63;6189398;23;20427;-82
2022/08/12 09:25:38;;;;;;;8.18;3.67;;;;;;;26.35;35.57;101729.47;6189967;23;20138;-82
2022/08/12 09:28:06;;;;;;;10.20;4.22;;;;;;;26.41;34.99;101731.91;6190349;23;20013;-82
2022/08/12 09:30:32;;;;;;;11.83;3.77;;;;;;;26.57;34.58;101724.13;6165469;23;20013;-82
2022/08/12 09:32:57;;;;;;;5.63;3.83;;;;;;;26.75;34.30;101728.03;6190954;23;20009;-82
2022/08/12 09:35:27;;;;;;;6.30;3.87;;;;;;;26.88;33.57;101726.41;6165867;23;20004;-82
2022/08/12 09:37:54;;;;;;;7.60;3.70;;;;;;;27.02;32.88;101732.03;6216427;23;20004;-82
2022/08/12 09:40:21;;;;;;;11.18;3.95;;;;;;;27.12;33.44;101726.28;6189975;23;20009;-82
2022/08/12 09:45:32;;;;;;;9.30;3.55;;;;;;;27.39;33.12;101716.31;6194204;23;20023;-82
2022/08/12 09:48:05;;;;;;;7.03;3.73;;;;;;;27.52;32.23;101703.53;6189804;23;20059;-82
2022/08/12 09:50:33;;;;;;;9.32;3.75;;;;;;;27.68;32.23;101717.94;6217088;23;20005;-82
2022/08/12 09:53:12;;;;;;;7.70;3.85;;;;;;;27.84;32.22;101710.09;6189764;23;20009;-82
2022/08/12 09:55:42;;;;;;;7.05;3.55;;;;;;;27.94;31.88;101701.50;6189582;23;20447;-82
2022/08/12 09:58:07;;;;;;;7.15;3.97;;;;;;;28.04;32.09;101703.28;6216269;23;20028;-83
2022/08/12 10:00:35;;;;;;;6.33;3.90;;;;;;;28.16;31.24;101709.13;6190029;23;20055;-83
2022/08/12 10:03:08;;;;;;;12.05;4.13;;;;;;;28.26;31.33;101696.91;6189445;23;20430;-82
2022/08/12 10:05:38;;;;;;;7.13;4.07;;;;;;;28.38;31.71;101696.34;6189740;23;20020;-85
2022/08/12 10:08:09;;;;;;;8.77;3.80;;;;;;;28.52;31.14;101699.06;6216633;23;20075;-84
2022/08/12 10:19:42;;;;;;;10.00;3.90;;;;;;;29.25;30.17;101686.88;6215514;23;20024;-84
2022/08/12 11:28:09;;;;;;;9.77;3.90;;;;;;;40.06;18.59;101614.53;6231504;22;20022;-84
2022/08/12 12:08:36;;;;;;;9.90;6.70;;;;;;;53.61;8.47;101552.91;6186103;23;20075;-85
2022/08/12 12:11:01;;;;;;;8.85;7.30;;;;;;;54.12;7.03;101536.31;6187489;23;20012;-85
2022/08/12 12:13:27;;;;;;;12.87;8.27;;;;;;;54.57;6.24;101530.25;6136896;23;20013;-85
2022/08/12 14:14:13;;;;;;;18.73;17.35;;;;;;;59.63;3.73;101385.41;6218078;22;20074;-85
2022/08/12 14:16:45;;;;;;;18.00;16.77;;;;;;;60.09;3.50;101396.53;6165766;23;20342;-85
2022/08/12 15:08:44;;;;;;;17.13;15.35;;;;;;;59.13;4.20;101357.56;6216461;23;20009;-86
2022/08/12 16:48:09;;;;;;;7.07;5.82;;;;;;;41.52;12.14;101310.31;6216908;23;20028;-83
2022/08/12 16:50:35;;;;;;;7.33;5.60;;;;;;;41.10;12.80;101315.03;6166065;23;20008;-85
2022/08/12 16:53:00;;;;;;;8.32;5.63;;;;;;;40.64;12.75;101306.31;6191045;23;20004;-85
2022/08/12 17:19:40;;;;;;;7.10;6.10;;;;;;;38.76;13.94;101319.66;6216143;23;20021;-85
2022/08/12 17:22:07;;;;;;;6.78;4.00;;;;;;;38.42;14.12;101319.88;6216859;23;20075;-85
2022/08/12 17:24:35;;;;;;;4.85;4.45;;;;;;;38.32;14.13;101326.28;6140784;23;20047;-85
2022/08/12 17:42:06;;;;;;;6.57;3.85;;;;;;;37.68;14.44;101330.25;6229131;22;20085;-85
2022/08/12 18:36:22;;;;;;;8.33;3.37;;;;;;;33.31;18.47;101362.00;6183789;23;20009;-85
2022/08/12 18:43:02;;;;;;;7.85;3.10;;;;;;;32.74;19.25;101355.50;6190679;22;20031;-84
2022/08/12 18:45:31;;;;;;;5.35;2.78;;;;;;;32.29;20.09;101360.09;6196142;23;20012;-84
2022/08/12 18:47:57;;;;;;;4.72;2.80;;;;;;;32.03;20.10;101355.66;6194922;23;20447;-83
2022/08/12 20:25:14;;;;;;;9.75;2.97;;;;;;;25.36;33.32;101426.31;6190724;22;20078;-84
2022/08/12 20:28:05;;;;;;;4.70;3.10;;;;;;;25.29;32.31;101414.75;6187990;23;20021;-86
2022/08/12 20:30:36;;;;;;;11.45;2.85;;;;;;;25.11;34.06;101417.22;6185667;23;20009;-86
2022/08/12 20:33:02;;;;;;;5.88;3.00;;;;;;;25.07;33.81;101410.66;6187397;23;20032;-86
2022/08/12 20:35:28;;;;;;;5.87;3.00;;;;;;;24.97;33.54;101417.16;6158621;23;20419;-85
2022/08/12 20:37:54;;;;;;;6.57;3.00;;;;;;;24.92;33.33;101421.94;6217398;23;20434;-86
2022/08/12 20:40:20;;;;;;;7.40;2.90;;;;;;;24.85;33.35;101423.16;6190579;23;20043;-85
2022/08/12 20:42:47;;;;;;;6.82;2.88;;;;;;;24.76;33.90;101422.16;6217166;23;20056;-85
2022/08/12 20:45:14;;;;;;;5.55;3.20;;;;;;;24.69;34.92;101422.53;6190535;23;20008;-85
2022/08/12 20:47:41;;;;;;;7.25;2.88;;;;;;;24.63;35.27;101418.16;6165732;23;20160;-86
2022/08/12 20:50:07;;;;;;;15.07;3.47;;;;;;;24.55;35.84;101421.56;6216915;23;20019;-86
2022/08/12 20:52:34;;;;;;;6.13;2.80;;;;;;;24.48;35.73;101424.69;6190267;23;20070;-85
2022/08/12 20:55:01;;;;;;;6.80;3.10;;;;;;;24.42;35.86;101422.28;6166381;23;20004;-85
2022/08/12 20:57:26;;;;;;;5.88;2.97;;;;;;;24.34;35.83;101424.59;6190842;23;20296;-85
2022/08/12 20:59:53;;;;;;;8.13;3.13;;;;;;;24.25;35.60;101420.78;6141217;23;20051;-85
2022/08/12 21:02:19;;;;;;;6.82;3.13;;;;;;;24.21;36.30;101427.22;6190176;23;20008;-85
2022/08/12 21:07:33;;;;;;;9.33;3.10;;;;;;;24.10;37.00;101429.28;6217442;23;20071;-86
2022/08/12 21:10:00;;;;;;;8.05;3.25;;;;;;;24.02;37.86;101424.38;6189992;23;20512;-86
2022/08/12 21:12:26;;;;;;;9.23;3.63;;;;;;;23.95;37.33;101417.22;6216965;23;20453;-85
2022/08/12 21:15:02;;;;;;;9.70;3.30;;;;;;;23.86;38.05;101423.69;6216978;23;20027;-85
2022/08/12 21:17:32;;;;;;;9.73;3.28;;;;;;;23.85;37.37;101427.56;6217070;23;20087;-85
2022/08/12 21:20:05;;;;;;;6.57;3.37;;;;;;;23.79;37.04;101424.00;6216952;23;20084;-85
2022/08/12 21:22:32;;;;;;;7.25;3.55;;;;;;;23.73;37.74;101430.72;6167572;23;20008;-85
2022/08/12 21:25:01;;;;;;;4.28;3.50;;;;;;;23.63;36.47;101417.78;6185343;23;20075;-85
2022/08/12 21:27:27;;;;;;;5.82;3.47;;;;;;;23.64;36.85;101423.03;6186994;23;20076;-85
2022/08/12 21:29:54;;;;;;;13.60;4.07;;;;;;;23.57;36.77;101411.44;6186850;23;20009;-85
2022/08/12 21:32:22;;;;;;;10.37;3.40;;;;;;;23.52;38.26;101425.34;6185285;23;20017;-85
2022/08/12 21:34:47;;;;;;;9.38;3.70;;;;;;;23.45;39.19;101422.88;6186184;23;20013;-86
2022/08/12 21:37:13;;;;;;;10.52;3.13;;;;;;;23.39;38.72;101412.16;6185229;23;20546;-85
2022/08/12 21:39:38;;;;;;;8.23;3.43;;;;;;;23.35;38.96;101414.66;6184848;23;20025;-85
2022/08/12 21:42:05;;;;;;;7.20;3.10;;;;;;;23.33;39.49;101419.69;6184933;23;20013;-85
2022/08/12 21:44:33;;;;;;;7.95;3.30;;;;;;;23.26;38.96;101416.41;6187439;23;20037;-85
2022/08/12 21:47:08;;;;;;;8.77;3.42;;;;;;;23.21;38.10;101419.19;6185123;23;20067;-85
2022/08/12 21:49:36;;;;;;;7.33;3.10;;;;;;;23.15;39.75;101417.56;6186635;23;20089;-85
2022/08/12 21:52:10;;;;;;;6.13;3.13;;;;;;;23.07;39.34;101425.31;6185315;23;20008;-85
2022/08/12 21:54:41;;;;;;;8.35;2.90;;;;;;;23.00;39.29;101421.22;6184755;23;20001;-85
2022/08/12 21:57:12;;;;;;;3.35;2.88;;;;;;;22.95;39.62;101422.91;6185616;23;20071;-85
2022/08/12 21:59:39;;;;;;;7.22;3.22;;;;;;;22.87;39.52;101419.91;6186027;23;20009;-86
2022/08/12 22:06:16;;;;;;;7.40;3.20;;;;;;;22.85;40.85;101422.16;6185069;23;20309;-86
2022/08/12 22:07:38;;;;;;;6.50;3.40;;;;;;;22.76;41.92;101425.53;6185628;23;20020;-85
2022/08/12 22:10:04;;;;;;;4.45;3.00;;;;;;;22.68;40.75;101422.50;6186450;23;20005;-85
2022/08/12 22:12:32;;;;;;;7.80;3.42;;;;;;;22.61;41.62;101436.63;6184824;23;20016;-86
2022/08/12 22:15:00;;;;;;;4.23;3.27;;;;;;;22.47;39.74;101427.28;6184812;23;20041;-85
2022/08/12 22:17:32;;;;;;;8.95;3.63;;;;;;;22.48;40.32;101432.53;6136213;23;20059;-86
2022/08/12 22:19:59;;;;;;;5.93;3.40;;;;;;;22.39;39.46;101429.50;6185558;23;20012;-86
2022/08/12 22:22:25;;;;;;;9.10;3.70;;;;;;;22.38;39.31;101429.78;6160117;23;20096;-86
2022/08/12 22:24:51;;;;;;;4.68;3.28;;;;;;;22.39;40.27;101440.56;6184836;23;20086;-85
2022/08/12 22:27:17;;;;;;;8.73;3.67;;;;;;;22.33;40.29;101435.34;6185108;23;20475;-85
2022/08/12 22:32:27;;;;;;;7.53;3.45;;;;;;;22.14;40.24;101429.56;6185118;23;20140;-85
2022/08/12 22:35:28;;;;;;;8.60;3.63;;;;;;;22.14;40.62;101440.59;6184302;23;20005;-86
2022/08/12 22:37:39;;;;;;;7.77;3.80;;;;;;;22.08;40.99;101440.59;6186150;23;20466;-85
2022/08/12 22:40:05;;;;;;;11.15;3.70;;;;;;;22.06;41.55;101444.78;6160070;23;20056;-85
2022/08/12 22:47:59;;;;;;;7.97;3.85;;;;;;;21.95;42.32;101445.88;6164054;23;20351;-86
2022/08/12 22:50:27;;;;;;;7.57;3.80;;;;;;;21.81;41.62;101431.81;6184471;23;20005;-85
2022/08/12 22:53:12;;;;;;;6.43;3.90;;;;;;;21.80;41.36;101430.97;6160785;23;20296;-85